Time;durP1;ratioP1;P1;durP2;ratioP2;P2;SDS_P1;SDS_P2;PMS_P1;PMS_P2;Temp;Humidity;BMP_temperature;BMP_pressure;BME280_temperature;BME280_humidity;BME280_pressure;Samples;Min_cycle;Max_cycle;Signal;HPM_P1;HPM_P2
2023/07/16 00:02:44;;;;;;;2.13;1.60;;;;;;;18.01;75.69;100964.22;10447236;28;20565;-76
2023/07/16 00:07:47;;;;;;;1.80;1.40;;;;;;;17.85;76.37;100964.97;10429641;28;20046;-76
2023/07/16 00:12:49;;;;;;;2.20;1.48;;;;;;;17.84;76.52;100974.44;10429260;28;20049;-76
2023/07/16 00:17:51;;;;;;;2.85;1.70;;;;;;;17.89;76.14;100977.09;10429182;28;20049;-75
2023/07/16 00:22:54;;;;;;;3.05;1.63;;;;;;;18.15;74.78;100972.41;10429670;28;20042;-76
2023/07/16 00:27:57;;;;;;;2.95;1.60;;;;;;;18.08;75.12;100970.13;10428731;28;20061;-76
2023/07/16 00:32:59;;;;;;;3.15;2.03;;;;;;;17.99;75.59;100976.78;10412109;28;20049;-77
2023/07/16 00:38:01;;;;;;;4.28;2.45;;;;;;;17.85;76.47;100978.84;10446028;28;20041;-76
2023/07/16 00:43:03;;;;;;;2.67;2.20;;;;;;;17.76;76.74;100974.09;10428237;28;20044;-75
2023/07/16 00:48:06;;;;;;;3.97;2.60;;;;;;;17.89;76.20;100977.91;10428610;28;20053;-76
2023/07/16 00:53:10;;;;;;;3.88;2.22;;;;;;;17.89;76.44;100969.59;10445287;28;20053;-76
2023/07/16 00:58:12;;;;;;;3.17;1.90;;;;;;;17.97;76.46;100965.19;10428129;28;20442;-77
2023/07/16 01:03:15;;;;;;;3.03;1.80;;;;;;;17.80;77.31;100967.91;10445496;28;20053;-75
2023/07/16 01:08:21;;;;;;;2.65;1.52;;;;;;;17.54;78.77;100968.63;10427605;28;20064;-76
2023/07/16 01:13:25;;;;;;;2.70;1.40;;;;;;;17.62;78.56;100973.38;10428794;28;20044;-76
2023/07/16 01:18:27;;;;;;;2.42;1.77;;;;;;;17.65;78.79;100966.34;10427260;28;20050;-76
2023/07/16 01:23:44;;;;;;;2.78;1.70;;;;;;;17.74;78.67;100965.28;10444788;28;20053;-76
2023/07/16 01:29:04;;;;;;;2.85;1.67;;;;;;;17.75;78.52;100972.47;10427022;28;20065;-75
2023/07/16 01:34:06;;;;;;;4.18;1.70;;;;;;;17.75;78.68;100971.66;10426926;28;20041;-76
2023/07/16 01:39:08;;;;;;;3.15;1.50;;;;;;;17.64;79.43;100973.84;10410522;28;20041;-76
2023/07/16 01:44:11;;;;;;;2.47;1.80;;;;;;;17.89;78.30;100977.91;10452681;28;20037;-76
2023/07/16 01:49:13;;;;;;;2.47;1.67;;;;;;;17.95;77.99;100971.06;10434950;28;20080;-76
2023/07/16 01:54:15;;;;;;;3.55;1.60;;;;;;;17.91;78.29;100977.59;10452319;28;20072;-76
2023/07/16 01:59:17;;;;;;;2.15;1.80;;;;;;;18.31;76.85;100983.88;10452850;28;20045;-76
2023/07/16 02:04:20;;;;;;;2.88;1.70;;;;;;;18.75;75.56;100979.19;10434964;28;20046;-76
2023/07/16 02:09:22;;;;;;;3.10;2.00;;;;;;;19.06;74.76;100974.22;10452576;28;20060;-76
2023/07/16 02:14:25;;;;;;;2.67;1.70;;;;;;;19.51;73.62;100990.50;10434690;28;20488;-76
2023/07/16 02:19:27;;;;;;;4.18;1.88;;;;;;;19.56;73.55;100991.16;10418688;28;20048;-75
2023/07/16 02:24:31;;;;;;;3.10;1.98;;;;;;;19.69;72.72;100999.63;10433441;28;20041;-75
2023/07/16 02:29:33;;;;;;;1.73;1.50;;;;;;;20.03;71.54;100996.69;10450817;28;20060;-74
2023/07/16 02:34:36;;;;;;;2.72;1.75;;;;;;;20.46;70.06;101006.75;10463137;28;20480;-77
2023/07/16 02:39:46;;;;;;;2.45;1.50;;;;;;;20.63;69.00;100998.25;10490628;28;20045;-76
2023/07/16 02:44:48;;;;;;;2.50;1.60;;;;;;;20.85;67.97;101013.03;10474042;28;20041;-76
2023/07/16 02:49:52;;;;;;;3.17;1.50;;;;;;;21.34;66.06;101011.25;10490705;28;20066;-76
2023/07/16 02:54:54;;;;;;;4.22;1.48;;;;;;;21.18;66.79;101018.63;10472976;28;20045;-76
2023/07/16 02:59:56;;;;;;;4.88;1.83;;;;;;;21.46;65.57;101021.63;10491088;28;20053;-76
2023/07/16 03:04:58;;;;;;;2.80;1.67;;;;;;;21.80;64.77;101021.22;10473264;28;20040;-76
2023/07/16 03:10:00;;;;;;;3.15;1.38;;;;;;;21.81;64.55;101024.84;10490354;28;20431;-77
2023/07/16 03:15:03;;;;;;;4.65;1.20;;;;;;;22.50;62.13;101026.72;10490515;28;20478;-76
2023/07/16 03:20:07;;;;;;;1.45;1.10;;;;;;;22.62;61.99;101023.91;10473034;28;20564;-77
2023/07/16 03:25:10;;;;;;;1.30;1.20;;;;;;;22.73;60.82;101029.78;10490702;28;20055;-76
2023/07/16 03:30:12;;;;;;;1.83;1.20;;;;;;;23.01;59.09;101016.69;10488275;28;20427;-76
2023/07/16 03:35:14;;;;;;;6.57;1.42;;;;;;;23.57;58.03;101019.44;10488889;28;20041;-76
2023/07/16 03:40:18;;;;;;;3.70;1.60;;;;;;;23.56;58.45;101026.19;10490111;28;20040;-76
2023/07/16 03:45:23;;;;;;;3.38;1.20;;;;;;;23.57;57.30;101030.66;10471664;28;20052;-76
2023/07/16 03:50:26;;;;;;;3.63;1.38;;;;;;;24.06;56.28;101025.50;10471966;28;20037;-75
2023/07/16 03:55:31;;;;;;;3.50;1.30;;;;;;;24.31;56.79;101030.94;10488978;28;20040;-76
2023/07/16 04:00:33;;;;;;;1.40;1.30;;;;;;;24.36;55.65;101027.84;10487051;28;20049;-75
2023/07/16 04:05:35;;;;;;;1.35;1.15;;;;;;;24.33;56.41;101020.97;10471175;28;20507;-77
2023/07/16 04:10:38;;;;;;;7.13;1.40;;;;;;;24.51;55.94;101032.59;10471109;28;20045;-76
2023/07/16 04:15:40;;;;;;;2.67;1.38;;;;;;;25.06;54.14;101033.41;10488223;28;20044;-76
2023/07/16 04:20:42;;;;;;;1.95;1.13;;;;;;;25.03;54.90;101030.53;10488649;28;20045;-77
2023/07/16 04:25:44;;;;;;;5.60;1.58;;;;;;;25.80;52.74;101027.59;10469920;28;20055;-76
2023/07/16 04:30:46;;;;;;;2.05;1.38;;;;;;;25.52;52.65;101036.34;10486846;28;20243;-76
2023/07/16 04:35:50;;;;;;;2.90;1.05;;;;;;;25.68;52.64;101031.41;10483080;28;20555;-76
2023/07/16 04:40:52;;;;;;;1.42;1.20;;;;;;;25.73;52.51;101028.31;10487916;28;20506;-76
2023/07/16 04:45:54;;;;;;;3.08;1.65;;;;;;;26.21;51.43;101033.50;10486682;28;20070;-74
2023/07/16 04:50:56;;;;;;;1.40;1.20;;;;;;;26.61;50.17;101047.00;10486756;28;20522;-75
2023/07/16 04:55:58;;;;;;;1.65;1.10;;;;;;;26.95;49.25;101054.31;10486425;28;20513;-76
2023/07/16 05:01:00;;;;;;;2.70;1.10;;;;;;;27.41;48.68;101047.63;10485874;28;20052;-77
2023/07/16 05:06:03;;;;;;;2.83;1.48;;;;;;;27.85;47.46;101047.72;10486620;28;20053;-76
2023/07/16 05:11:07;;;;;;;3.58;1.50;;;;;;;27.73;46.98;101048.78;10468606;28;20055;-76
2023/07/16 05:16:09;;;;;;;1.27;1.05;;;;;;;27.74;47.36;101053.22;10467630;28;20045;-76
2023/07/16 05:21:11;;;;;;;2.08;1.05;;;;;;;27.66;46.44;101065.66;10486768;28;20041;-76
2023/07/16 05:26:14;;;;;;;1.67;1.10;;;;;;;28.32;45.19;101052.56;10485812;28;20056;-76
2023/07/16 05:31:16;;;;;;;1.00;0.90;;;;;;;28.42;45.48;101063.09;10484655;28;20070;-76
2023/07/16 05:36:18;;;;;;;3.63;1.30;;;;;;;28.66;44.52;101058.03;10485469;28;20711;-74
2023/07/16 05:41:20;;;;;;;1.40;1.10;;;;;;;28.28;46.08;101074.28;10481509;28;20036;-74
2023/07/16 05:46:22;;;;;;;2.28;0.90;;;;;;;28.59;45.01;101072.88;10485148;28;20053;-75
2023/07/16 05:51:24;;;;;;;1.33;1.23;;;;;;;28.58;45.01;101067.66;10485633;28;20056;-75
2023/07/16 05:56:26;;;;;;;1.70;1.13;;;;;;;28.31;45.41;101072.72;10485437;28;20036;-75
2023/07/16 06:01:28;;;;;;;2.42;1.33;;;;;;;28.51;45.25;101071.25;10485824;28;20045;-76
2023/07/16 06:06:31;;;;;;;2.13;1.20;;;;;;;28.80;44.31;101075.84;10468148;28;20049;-76
2023/07/16 06:11:33;;;;;;;1.40;1.13;;;;;;;29.06;43.81;101076.81;10485103;28;20041;-76
2023/07/16 06:16:35;;;;;;;2.13;1.50;;;;;;;28.30;45.32;101071.09;10484976;28;20060;-76
2023/07/16 06:21:37;;;;;;;1.33;1.00;;;;;;;28.81;43.96;101079.47;10467567;28;20041;-76
2023/07/16 06:26:39;;;;;;;1.38;0.98;;;;;;;28.86;44.53;101078.31;10487279;28;20053;-76
2023/07/16 06:31:55;;;;;;;2.42;1.10;;;;;;;28.59;43.58;101077.72;10491817;28;20079;-76
2023/07/16 06:36:57;;;;;;;1.08;1.00;;;;;;;29.13;43.59;101080.47;10491885;28;20407;-77
2023/07/16 06:41:59;;;;;;;2.85;1.10;;;;;;;29.81;41.24;101085.53;10493092;28;20048;-76
2023/07/16 06:47:03;;;;;;;1.63;1.20;;;;;;;29.85;41.54;101075.88;10474555;28;20041;-76
2023/07/16 06:52:05;;;;;;;2.85;1.08;;;;;;;30.15;40.79;101077.50;10491618;28;20123;-76
2023/07/16 06:57:08;;;;;;;1.02;1.00;;;;;;;30.01;40.24;101078.28;10491577;28;20044;-75
2023/07/16 07:02:10;;;;;;;1.00;0.90;;;;;;;30.04;38.99;101080.34;10491180;28;20049;-75
2023/07/16 07:07:12;;;;;;;3.38;1.20;;;;;;;29.75;40.11;101070.19;10472639;28;20084;-75
2023/07/16 07:12:14;;;;;;;1.80;0.95;;;;;;;29.89;38.94;101081.53;10490753;28;20048;-75
2023/07/16 07:17:16;;;;;;;1.95;1.10;;;;;;;30.30;38.93;101079.94;10490110;28;20142;-74
2023/07/16 07:22:18;;;;;;;1.63;1.10;;;;;;;30.25;39.75;101073.88;10490544;28;20078;-76
2023/07/16 07:27:20;;;;;;;2.40;1.20;;;;;;;30.41;37.85;101070.63;10490541;28;20049;-76
2023/07/16 07:32:23;;;;;;;2.38;1.13;;;;;;;30.99;35.12;101080.63;10490015;28;20447;-76
2023/07/16 07:37:25;;;;;;;2.22;1.27;;;;;;;31.03;35.85;101070.88;10489148;28;20037;-76
2023/07/16 07:42:27;;;;;;;1.70;1.20;;;;;;;30.77;34.92;101072.19;10485804;28;20463;-76
2023/07/16 07:47:29;;;;;;;2.65;1.10;;;;;;;30.84;34.41;101065.69;10489346;28;20511;-75
2023/07/16 07:52:31;;;;;;;1.45;1.20;;;;;;;30.91;34.57;101068.53;10489166;28;20041;-75
2023/07/16 07:57:33;;;;;;;3.45;0.85;;;;;;;31.02;32.65;101062.78;10489032;28;20531;-75
2023/07/16 08:02:35;;;;;;;6.18;1.63;;;;;;;31.59;32.36;101065.34;10483121;28;20037;-75
2023/07/16 08:07:38;;;;;;;0.98;0.82;;;;;;;31.05;33.20;101061.97;10487902;28;20053;-75
2023/07/16 08:12:40;;;;;;;1.02;0.90;;;;;;;31.89;31.44;101062.75;10487235;28;20048;-75
2023/07/16 08:17:42;;;;;;;2.58;1.10;;;;;;;32.17;32.09;101063.75;10487626;28;20057;-75
2023/07/16 08:22:45;;;;;;;1.40;1.13;;;;;;;31.50;32.72;101058.13;10488031;28;20415;-75
2023/07/16 08:27:47;;;;;;;1.08;0.82;;;;;;;31.29;32.90;101055.41;10487069;28;20064;-76
2023/07/16 08:32:49;;;;;;;0.77;0.77;;;;;;;31.66;32.14;101051.94;10487546;28;20430;-76
2023/07/16 08:37:51;;;;;;;1.00;0.90;;;;;;;31.12;32.19;101044.94;10468207;28;20037;-76
2023/07/16 08:42:54;;;;;;;1.10;1.00;;;;;;;30.65;33.29;101038.63;10468249;28;20091;-76
2023/07/16 08:47:57;;;;;;;2.05;1.23;;;;;;;31.49;31.33;101045.16;10469608;28;20055;-76
2023/07/16 08:52:59;;;;;;;1.50;1.00;;;;;;;31.88;29.38;101035.59;10447114;28;20068;-76
2023/07/16 08:58:02;;;;;;;1.50;1.13;;;;;;;31.92;30.03;101027.84;10445045;28;20041;-75
2023/07/16 09:03:04;;;;;;;2.60;1.10;;;;;;;31.55;30.42;101025.66;10445493;28;20041;-75
2023/07/16 09:08:06;;;;;;;1.88;1.10;;;;;;;31.46;28.66;101019.66;10444044;28;20463;-75
2023/07/16 09:13:09;;;;;;;1.50;1.13;;;;;;;31.13;28.74;101023.88;10443557;28;20053;-75
2023/07/16 09:18:11;;;;;;;1.55;1.10;;;;;;;30.28;29.81;101031.41;10444949;28;20423;-75
2023/07/16 09:23:16;;;;;;;1.08;0.82;;;;;;;30.50;30.31;101020.84;10444778;28;20049;-75
2023/07/16 09:28:19;;;;;;;2.05;1.40;;;;;;;30.52;29.92;101015.56;10444490;28;20049;-75
2023/07/16 09:33:25;;;;;;;1.20;1.10;;;;;;;29.78;31.40;101019.25;10481964;28;20122;-75
2023/07/16 09:38:28;;;;;;;0.93;0.90;;;;;;;27.18;35.35;101028.06;10481677;28;20041;-75
2023/07/16 09:43:30;;;;;;;2.53;0.80;;;;;;;26.22;36.72;101016.25;10485638;28;20044;-75
2023/07/16 09:48:32;;;;;;;1.30;0.80;;;;;;;25.96;36.14;101019.84;10464181;28;20458;-75
2023/07/16 09:53:36;;;;;;;0.90;0.90;;;;;;;26.05;35.04;101013.97;10485991;28;20052;-75
2023/07/16 09:58:38;;;;;;;0.80;0.80;;;;;;;26.04;35.24;101013.16;10485307;28;20466;-75
2023/07/16 10:03:50;;;;;;;1.88;1.05;;;;;;;26.21;34.53;101010.97;10473792;28;20048;-75
2023/07/16 10:08:52;;;;;;;1.10;0.80;;;;;;;25.94;34.07;101016.59;10471927;28;20052;-74
2023/07/16 10:13:54;;;;;;;3.40;0.90;;;;;;;26.03;34.99;101008.75;10492903;28;20517;-75
2023/07/16 10:19:00;;;;;;;2.47;1.33;;;;;;;25.93;34.01;101012.16;10491123;28;20052;-75
2023/07/16 10:24:05;;;;;;;0.90;0.80;;;;;;;25.85;34.59;101013.22;10452527;28;20045;-74
2023/07/16 10:29:07;;;;;;;1.27;0.90;;;;;;;26.02;35.23;101011.91;10451147;28;20068;-76
2023/07/16 10:34:09;;;;;;;1.58;1.42;;;;;;;26.11;32.85;101001.22;10451090;28;20064;-75
2023/07/16 10:39:11;;;;;;;1.10;1.00;;;;;;;25.94;33.73;100998.94;10449808;28;20415;-76
2023/07/16 10:44:14;;;;;;;1.85;0.90;;;;;;;25.79;33.39;100992.25;10449219;28;20052;-76
2023/07/16 10:49:26;;;;;;;0.93;0.77;;;;;;;25.90;33.95;100990.44;10468425;28;20049;-76
2023/07/16 10:54:28;;;;;;;2.67;1.08;;;;;;;25.79;34.83;100984.63;10473471;28;20423;-76
2023/07/16 10:59:32;;;;;;;0.90;0.70;;;;;;;25.76;34.57;100979.75;10491322;28;20411;-75
2023/07/16 11:04:35;;;;;;;1.63;1.10;;;;;;;25.60;35.52;100976.25;10491328;28;20037;-75
2023/07/16 11:09:42;;;;;;;1.70;1.20;;;;;;;25.73;35.73;100965.66;10489964;28;20045;-76
2023/07/16 11:14:46;;;;;;;2.80;1.17;;;;;;;25.83;36.62;100965.00;10488463;28;20056;-75
2023/07/16 11:19:49;;;;;;;1.35;1.10;;;;;;;25.72;36.05;100962.03;10473397;28;20041;-73
2023/07/16 11:24:51;;;;;;;1.55;1.30;;;;;;;25.89;36.34;100954.25;10489795;28;20037;-75
2023/07/16 11:29:59;;;;;;;1.42;1.27;;;;;;;25.77;36.29;100950.47;10490305;28;20052;-75
2023/07/16 11:35:05;;;;;;;2.13;1.65;;;;;;;25.70;36.77;100941.13;10472270;28;20061;-75
2023/07/16 11:40:09;;;;;;;2.30;1.60;;;;;;;25.91;36.76;100944.25;10489633;28;20064;-75
2023/07/16 11:45:22;;;;;;;0.95;0.90;;;;;;;26.05;35.44;100943.66;10487933;28;20053;-75
2023/07/16 11:50:25;;;;;;;3.22;1.67;;;;;;;26.14;35.38;100944.19;10471585;28;20041;-75
2023/07/16 11:55:27;;;;;;;1.90;1.08;;;;;;;25.81;35.55;100936.47;10488307;28;20053;-75
2023/07/16 12:00:29;;;;;;;2.03;1.80;;;;;;;25.97;36.41;100939.94;10487502;28;20048;-75
2023/07/16 12:05:31;;;;;;;1.25;1.15;;;;;;;26.04;35.45;100928.78;10469777;28;20041;-74
2023/07/16 12:10:34;;;;;;;2.00;1.20;;;;;;;26.03;35.10;100924.38;10450802;28;20041;-75
2023/07/16 12:15:36;;;;;;;2.70;1.02;;;;;;;26.09;34.95;100933.28;10446598;28;20061;-75
2023/07/16 12:20:39;;;;;;;2.20;1.20;;;;;;;26.24;33.82;100929.47;10429316;28;20041;-75
2023/07/16 12:25:43;;;;;;;1.98;1.08;;;;;;;26.31;34.60;100915.50;10429134;28;20049;-74
2023/07/16 12:30:45;;;;;;;1.50;1.05;;;;;;;26.51;34.27;100904.94;10446067;28;20048;-77
2023/07/16 12:35:47;;;;;;;4.05;1.05;;;;;;;26.53;32.91;100894.09;10446046;28;20046;-75
2023/07/16 12:40:49;;;;;;;2.58;1.20;;;;;;;26.50;33.21;100899.69;10446017;28;20037;-75
2023/07/16 12:45:51;;;;;;;1.73;1.20;;;;;;;26.52;32.63;100895.28;10446068;28;20407;-75
2023/07/16 12:50:54;;;;;;;2.03;1.55;;;;;;;26.20;32.96;100882.78;10428051;28;20416;-75
2023/07/16 12:55:56;;;;;;;2.53;1.77;;;;;;;26.39;33.35;100893.94;10427695;28;20049;-74
2023/07/16 13:00:58;;;;;;;3.72;1.80;;;;;;;26.37;32.20;100876.59;10423841;28;20515;-75
2023/07/16 13:06:00;;;;;;;2.20;1.33;;;;;;;26.46;31.98;100879.13;10426850;28;20033;-75
2023/07/16 13:11:02;;;;;;;4.68;2.47;;;;;;;26.24;33.15;100872.41;10444966;28;20051;-76
2023/07/16 13:16:04;;;;;;;1.83;1.25;;;;;;;26.21;33.02;100873.13;10454115;28;20048;-75
2023/07/16 13:21:07;;;;;;;4.13;1.20;;;;;;;26.23;32.18;100870.78;10485900;28;20040;-76
2023/07/16 13:26:09;;;;;;;5.50;1.10;;;;;;;26.25;33.51;100869.22;10451638;28;20056;-75
2023/07/16 13:31:11;;;;;;;4.55;1.63;;;;;;;26.34;33.44;100860.47;10485844;28;20045;-75
2023/07/16 13:36:13;;;;;;;1.52;1.20;;;;;;;26.41;33.01;100846.53;10487048;28;20037;-75
2023/07/16 13:41:15;;;;;;;2.75;1.20;;;;;;;26.24;33.01;100847.09;10494036;28;20421;-76
2023/07/16 13:46:17;;;;;;;4.47;1.80;;;;;;;26.32;32.21;100841.16;10493976;28;20036;-75
2023/07/16 13:51:20;;;;;;;6.15;1.80;;;;;;;26.17;33.83;100830.91;10494010;28;20057;-75
2023/07/16 13:56:22;;;;;;;1.95;1.70;;;;;;;26.46;32.57;100834.09;10493634;28;20045;-75
2023/07/16 14:01:24;;;;;;;3.88;1.70;;;;;;;26.46;32.64;100822.84;10494113;28;20048;-76
2023/07/16 14:06:26;;;;;;;6.90;1.15;;;;;;;26.33;33.54;100820.25;10476491;28;20051;-75
2023/07/16 14:11:28;;;;;;;3.17;1.30;;;;;;;26.53;33.30;100809.66;10493275;28;20495;-76
2023/07/16 14:16:31;;;;;;;2.50;1.50;;;;;;;26.49;33.70;100816.44;10488955;28;20037;-75
2023/07/16 14:21:33;;;;;;;1.88;1.50;;;;;;;26.40;33.53;100813.97;10493147;28;20048;-75
2023/07/16 14:26:35;;;;;;;2.05;1.25;;;;;;;26.30;34.56;100814.59;10488192;28;20515;-76
2023/07/16 14:31:37;;;;;;;1.88;1.35;;;;;;;26.21;34.43;100800.00;10492146;28;20057;-75
2023/07/16 14:36:41;;;;;;;1.40;1.30;;;;;;;26.20;33.75;100806.81;10492175;28;20045;-75
2023/07/16 14:41:43;;;;;;;2.00;1.20;;;;;;;26.20;34.80;100793.56;10491846;28;20419;-75
2023/07/16 14:46:45;;;;;;;2.60;1.40;;;;;;;26.05;34.88;100787.00;10490717;28;20486;-75
2023/07/16 14:51:47;;;;;;;2.90;1.88;;;;;;;26.20;35.39;100787.13;10490919;28;20052;-75
2023/07/16 14:56:50;;;;;;;3.08;2.20;;;;;;;26.24;34.29;100782.38;10491661;28;20056;-75
2023/07/16 15:01:52;;;;;;;5.80;2.50;;;;;;;26.07;34.82;100778.97;10489490;28;20049;-75
2023/07/16 15:06:56;;;;;;;3.75;1.83;;;;;;;26.17;33.89;100773.84;10491006;28;20060;-75
2023/07/16 15:11:58;;;;;;;2.28;1.92;;;;;;;26.18;34.15;100772.66;10491510;28;20044;-75
2023/07/16 15:17:00;;;;;;;7.13;2.00;;;;;;;26.15;34.43;100769.41;10490782;28;20048;-75
2023/07/16 15:22:02;;;;;;;3.67;2.35;;;;;;;26.12;35.07;100770.19;10491279;28;20037;-75
2023/07/16 15:27:05;;;;;;;6.47;2.60;;;;;;;26.10;34.95;100777.41;10489564;28;20052;-75
2023/07/16 15:32:08;;;;;;;4.68;3.17;;;;;;;26.07;34.84;100769.72;10472234;28;20079;-75
2023/07/16 15:37:10;;;;;;;4.78;3.22;;;;;;;26.11;35.67;100773.38;10489933;28;20056;-75
2023/07/16 15:42:12;;;;;;;4.15;2.92;;;;;;;26.24;34.46;100762.69;10485600;28;20049;-75
2023/07/16 15:47:14;;;;;;;8.65;2.83;;;;;;;26.34;35.37;100770.41;10471623;28;20556;-75
2023/07/16 15:52:16;;;;;;;4.32;2.50;;;;;;;26.37;34.49;100764.06;10484784;28;20040;-75
2023/07/16 15:57:18;;;;;;;3.83;2.08;;;;;;;26.29;34.03;100763.16;10471062;28;20048;-75
2023/07/16 16:02:21;;;;;;;3.30;2.25;;;;;;;26.43;34.60;100746.44;10487483;28;20057;-75
2023/07/16 16:07:23;;;;;;;3.85;1.80;;;;;;;26.51;34.03;100738.88;10488649;28;20048;-74
2023/07/16 16:12:25;;;;;;;5.05;1.80;;;;;;;26.38;35.24;100737.53;10489010;28;20041;-75
2023/07/16 16:17:27;;;;;;;2.78;1.60;;;;;;;26.24;35.85;100748.63;10488811;28;20067;-75
2023/07/16 16:22:29;;;;;;;3.25;2.58;;;;;;;26.23;36.36;100747.81;10487906;28;20048;-75
2023/07/16 16:27:32;;;;;;;4.55;2.42;;;;;;;26.19;35.51;100732.88;10487617;28;20048;-76
2023/07/16 16:32:34;;;;;;;7.95;2.22;;;;;;;26.03;36.38;100726.66;10469315;28;20053;-75
2023/07/16 16:37:36;;;;;;;3.95;2.00;;;;;;;25.88;35.56;100725.72;10480096;28;20041;-76
2023/07/16 16:42:38;;;;;;;1.73;1.60;;;;;;;25.87;35.99;100728.91;10429290;28;20522;-75
2023/07/16 16:47:40;;;;;;;2.25;1.77;;;;;;;25.73;36.89;100724.72;10428300;28;20034;-76
2023/07/16 16:52:42;;;;;;;2.60;1.73;;;;;;;25.71;36.25;100729.91;10428453;28;20049;-76
2023/07/16 16:57:45;;;;;;;6.85;2.17;;;;;;;25.72;37.21;100719.50;10445487;28;20049;-76
2023/07/16 17:02:47;;;;;;;2.95;2.25;;;;;;;25.68;36.89;100719.41;10427459;28;20041;-75
2023/07/16 17:07:49;;;;;;;2.75;2.15;;;;;;;25.60;36.92;100723.31;10444784;28;20053;-75
2023/07/16 17:12:51;;;;;;;3.03;1.83;;;;;;;25.54;37.78;100720.03;10426094;28;20053;-74
2023/07/16 17:17:54;;;;;;;4.50;2.05;;;;;;;25.50;37.99;100710.72;10444768;28;20496;-75
2023/07/16 17:22:56;;;;;;;4.63;2.42;;;;;;;25.40;38.37;100711.41;10410629;28;20534;-75
2023/07/16 17:27:58;;;;;;;4.85;2.42;;;;;;;25.30;38.91;100709.25;10444369;28;20050;-75
2023/07/16 17:33:00;;;;;;;3.30;1.83;;;;;;;25.23;38.15;100706.34;10444323;28;20396;-76
2023/07/16 17:38:03;;;;;;;5.95;1.73;;;;;;;25.16;38.78;100701.41;10444367;28;20454;-75
2023/07/16 17:43:05;;;;;;;3.80;2.00;;;;;;;25.11;38.17;100700.94;10444226;28;20045;-75
2023/07/16 17:48:07;;;;;;;3.35;2.00;;;;;;;25.12;38.30;100689.31;10443488;28;20048;-75
2023/07/16 17:53:09;;;;;;;2.15;1.75;;;;;;;25.03;39.60;100702.03;10443939;28;20506;-75
2023/07/16 17:58:11;;;;;;;2.33;1.70;;;;;;;24.94;39.38;100693.81;10444303;28;20046;-76
2023/07/16 18:03:13;;;;;;;2.05;1.80;;;;;;;24.86;39.98;100687.31;10443964;28;20068;-76
2023/07/16 18:08:15;;;;;;;1.90;1.70;;;;;;;24.76;39.29;100689.94;10443754;28;20041;-75
2023/07/16 18:13:18;;;;;;;3.60;2.15;;;;;;;24.71;39.35;100684.66;10443922;28;20050;-75
2023/07/16 18:18:21;;;;;;;2.95;2.22;;;;;;;24.63;39.32;100681.69;10426135;28;20048;-76
2023/07/16 18:23:23;;;;;;;3.50;1.67;;;;;;;24.58;40.48;100676.41;10446699;28;20539;-75
2023/07/16 18:28:25;;;;;;;5.05;2.22;;;;;;;24.50;39.97;100677.50;10450966;28;20057;-75
2023/07/16 18:33:27;;;;;;;2.38;1.67;;;;;;;24.44;40.88;100681.78;10450562;28;20049;-75
2023/07/16 18:38:29;;;;;;;3.20;2.05;;;;;;;24.34;41.05;100676.81;10458050;28;20057;-75
2023/07/16 18:43:32;;;;;;;4.30;2.33;;;;;;;24.28;41.20;100673.44;10490997;28;20076;-76
2023/07/16 18:48:34;;;;;;;4.43;2.42;;;;;;;24.25;41.50;100679.81;10491407;28;20049;-75
2023/07/16 18:53:36;;;;;;;5.07;2.40;;;;;;;24.23;41.25;100679.38;10489988;28;20095;-75
2023/07/16 18:58:38;;;;;;;3.28;2.05;;;;;;;24.12;42.21;100680.34;10469275;28;20120;-75
2023/07/16 19:03:41;;;;;;;5.03;2.20;;;;;;;24.06;42.56;100679.84;10490455;28;20049;-75
2023/07/16 19:08:43;;;;;;;4.85;1.90;;;;;;;23.97;42.74;100684.91;10491240;28;20049;-75
2023/07/16 19:13:45;;;;;;;2.78;2.10;;;;;;;23.95;42.76;100681.63;10490002;28;20404;-76
2023/07/16 19:18:47;;;;;;;4.72;2.22;;;;;;;23.82;43.23;100691.41;10486323;28;20045;-75
2023/07/16 19:23:49;;;;;;;4.15;2.55;;;;;;;23.70;43.02;100681.94;10489868;28;20055;-76
2023/07/16 19:28:53;;;;;;;3.60;2.50;;;;;;;23.70;44.13;100684.75;10489377;28;20041;-75
2023/07/16 19:33:55;;;;;;;6.88;2.58;;;;;;;23.66;43.32;100686.69;10489163;28;20053;-76
2023/07/16 19:38:57;;;;;;;4.80;3.13;;;;;;;23.62;44.45;100680.19;10489582;28;20037;-76
2023/07/16 19:44:03;;;;;;;4.40;2.67;;;;;;;23.52;43.53;100677.13;10489546;28;20044;-76
2023/07/16 19:49:05;;;;;;;5.10;2.58;;;;;;;23.37;44.20;100676.81;10487645;28;20041;-75
2023/07/16 19:54:08;;;;;;;3.92;2.65;;;;;;;23.39;45.17;100687.66;10484281;28;20057;-76
2023/07/16 19:59:11;;;;;;;5.95;2.67;;;;;;;23.30;44.94;100684.28;10433571;28;20047;-76
2023/07/16 20:04:13;;;;;;;6.93;3.40;;;;;;;23.24;45.77;100675.31;10477169;28;20057;-76
2023/07/16 20:09:15;;;;;;;4.28;2.30;;;;;;;23.24;45.77;100671.72;10483720;28;20045;-77
2023/07/16 20:14:17;;;;;;;2.83;2.33;;;;;;;23.14;45.46;100668.31;10487340;28;20071;-76
2023/07/16 20:19:20;;;;;;;5.40;2.78;;;;;;;23.06;45.54;100665.72;10458093;28;20054;-75
2023/07/16 20:24:22;;;;;;;3.65;2.75;;;;;;;22.98;46.01;100667.56;10446584;28;20045;-75
2023/07/16 20:29:24;;;;;;;4.88;3.25;;;;;;;22.90;46.13;100656.53;10453316;28;20048;-75
2023/07/16 20:34:26;;;;;;;7.00;2.72;;;;;;;22.84;46.30;100645.63;10428788;28;20428;-76
2023/07/16 20:39:29;;;;;;;6.50;2.53;;;;;;;22.76;46.36;100646.63;10446252;28;20526;-74
2023/07/16 20:44:31;;;;;;;3.13;2.40;;;;;;;22.68;46.35;100639.22;10427871;28;20051;-76
2023/07/16 20:49:34;;;;;;;5.07;2.70;;;;;;;22.65;46.76;100648.34;10449466;28;20393;-75
2023/07/16 20:54:36;;;;;;;5.53;2.70;;;;;;;22.52;47.51;100639.22;10444894;28;20060;-75
2023/07/16 20:59:38;;;;;;;5.63;2.70;;;;;;;22.47;47.49;100649.88;10445731;28;20563;-75
2023/07/16 21:04:40;;;;;;;7.47;2.75;;;;;;;22.51;46.88;100648.00;10448735;28;20054;-76
2023/07/16 21:09:43;;;;;;;4.32;2.67;;;;;;;22.46;47.46;100646.28;10445555;28;20049;-76
2023/07/16 21:14:45;;;;;;;3.28;2.53;;;;;;;22.42;47.65;100653.78;10444738;28;20056;-75
2023/07/16 21:19:47;;;;;;;4.90;2.70;;;;;;;22.30;47.22;100656.66;10444920;28;20041;-76
2023/07/16 21:24:49;;;;;;;2.13;1.92;;;;;;;22.20;48.03;100649.59;10444815;28;20045;-75
2023/07/16 21:29:52;;;;;;;4.18;2.22;;;;;;;22.15;47.78;100652.66;10410753;28;20060;-75
2023/07/16 21:34:55;;;;;;;3.15;2.35;;;;;;;22.14;47.64;100650.22;10427036;28;20045;-75
2023/07/16 21:39:57;;;;;;;3.58;2.25;;;;;;;22.09;47.89;100653.31;10445222;28;20048;-75
2023/07/16 21:44:59;;;;;;;3.80;2.45;;;;;;;22.06;47.73;100654.84;10442891;28;20052;-75
2023/07/16 21:50:02;;;;;;;5.95;2.65;;;;;;;22.00;47.77;100653.44;10441115;28;20037;-75
2023/07/16 21:55:06;;;;;;;4.97;2.28;;;;;;;21.92;48.66;100649.63;10444193;28;20072;-75
2023/07/16 22:00:14;;;;;;;5.47;2.42;;;;;;;21.87;48.36;100644.31;10450408;28;20041;-75
2023/07/16 22:05:16;;;;;;;4.80;3.40;;;;;;;21.83;48.68;100642.56;10452420;28;20072;-75
2023/07/16 22:10:18;;;;;;;3.60;2.53;;;;;;;21.80;48.22;100635.72;10452956;28;20045;-76
2023/07/16 22:15:21;;;;;;;3.38;2.40;;;;;;;21.82;48.66;100638.16;10434633;28;20530;-75
2023/07/16 22:20:27;;;;;;;5.93;2.42;;;;;;;21.80;48.73;100630.13;10451648;28;20091;-75
2023/07/16 22:25:29;;;;;;;4.03;2.38;;;;;;;21.80;48.43;100621.75;10451840;28;20125;-75
2023/07/16 22:30:31;;;;;;;3.70;2.28;;;;;;;21.78;48.84;100618.50;10451187;28;20041;-75
2023/07/16 22:35:33;;;;;;;3.13;2.20;;;;;;;21.76;48.51;100606.88;10451651;28;20056;-75
2023/07/16 22:40:35;;;;;;;5.07;2.60;;;;;;;21.66;48.60;100612.97;10450802;28;20060;-75
2023/07/16 22:45:37;;;;;;;4.18;1.98;;;;;;;21.63;48.85;100605.31;10450739;28;20046;-75
2023/07/16 22:50:46;;;;;;;3.88;2.25;;;;;;;21.65;48.99;100611.34;10450364;28;20045;-74
2023/07/16 22:55:50;;;;;;;7.47;3.08;;;;;;;21.64;49.77;100604.16;10432537;28;20381;-74
2023/07/16 23:00:52;;;;;;;3.00;2.00;;;;;;;21.59;48.81;100602.44;10450072;28;20453;-75
2023/07/16 23:05:54;;;;;;;3.08;2.00;;;;;;;21.56;49.56;100602.34;10435748;28;20037;-76
2023/07/16 23:10:59;;;;;;;3.83;1.73;;;;;;;21.54;49.87;100604.69;10450231;28;20527;-76